ADDS METAR Data INFO
IDs: Format: Raw Decoded Include TAF

Data at: 1248 UTC 19 Oct 2017

KMCB 191153Z AUTO VRB03KT 10SM CLR 12/10 A3020 RMK AO2 SLP222 T01220100 10128 20106 53010 $
KMCB 191053Z AUTO 00000KT 10SM CLR 11/09 A3019 RMK AO2 SLP219 T01060089 $
KMCB 190953Z AUTO 00000KT 10SM CLR 11/09 A3017 RMK AO2 SLP213 T01110089 $
KMCB 190853Z AUTO 34003KT 10SM CLR 11/09 A3017 RMK AO2 SLP211 T01060089 58005 $
KMCB 190753Z AUTO 00000KT 10SM CLR 11/09 A3017 RMK AO2 SLP212 T01110089 $
KMCB 190653Z AUTO 00000KT 10SM CLR 12/10 A3018 RMK AO2 SLP216 T01220100 $
KMCB 190553Z AUTO 00000KT 10SM CLR 13/11 A3018 RMK AO2 SLP216 T01280106 10211 20122 402610117 58009 $
KMCB 190453Z AUTO 00000KT 10SM CLR 14/11 A3020 RMK AO2 SLP221 T01440106 $
KMCB 190353Z AUTO 09004KT 10SM CLR 16/11 A3021 RMK AO2 SLP227 T01610111 $
KMCB 190253Z AUTO 10004KT 10SM CLR 17/12 A3021 RMK AO2 SLP226 T01720117 51016 $
KMCB 190153Z AUTO 05003KT 6SM HZ CLR 18/13 A3020 RMK AO2 SLP222 T01830133 $
KMCB 190053Z AUTO 08003KT 10SM CLR 19/13 A3018 RMK AO2 SLP217 T01940133 $
KMCB 182353Z AUTO 06003KT 10SM CLR 21/14 A3016 RMK AO2 SLP210 T02110139 10261 20211 53003 $
KMCB 182253Z AUTO 00000KT 10SM CLR 25/13 A3015 RMK AO2 SLP204 T02500133 $
KMCB 182153Z AUTO VRB03KT 10SM CLR 26/12 A3015 RMK AO2 SLP204 T02560117 $
KMCB 182053Z AUTO VRB03KT 10SM CLR 26/12 A3015 RMK AO2 SLP205 T02560117 56019 $
KMCB 181953Z AUTO VRB05KT 10SM CLR 26/12 A3015 RMK AO2 SLP207 T02560122 $
KMCB 181853Z AUTO 12005KT 10SM CLR 24/12 A3018 RMK AO2 SLP215 T02440122 $
KMCB 181753Z AUTO 00000KT 10SM CLR 23/13 A3021 RMK AO2 SLP224 T02330128 10239 20117 58009 $
KMCB 181653Z AUTO VRB03KT 10SM CLR 23/12 A3023 RMK AO2 SLP233 T02280122 $
KMCB 181553Z AUTO 04004KT 10SM CLR 21/11 A3024 RMK AO2 SLP235 T02060106 $
KMCB 181453Z AUTO 08005KT 10SM CLR 18/09 A3023 RMK AO2 SLP234 T01780094 53010 $
KMCB 181353Z AUTO VRB04KT 10SM CLR 14/09 A3022 RMK AO2 SLP231 T01440094 $
KMCB 181253Z AUTO VRB04KT 10SM CLR 12/08 A3021 RMK AO2 SLP226 T01220083 $
KMCB 181153Z AUTO VRB03KT 10SM CLR 12/08 A3020 RMK AO2 SLP224 T01220083 10144 20122 51007 $
KMCB 181053Z AUTO 02003KT 10SM CLR 13/09 A3020 RMK AO2 SLP223 T01280089 $
KMCB 180953Z AUTO 06004KT 10SM CLR 12/09 A3018 RMK AO2 SLP217 T01220089 $
KMCB 180853Z AUTO 07003KT 10SM CLR 13/09 A3018 RMK AO2 SLP215 T01280094 58003 $
KMCB 180753Z AUTO 09004KT 10SM CLR 13/09 A3018 RMK AO2 SLP215 T01280094 $
KMCB 180653Z AUTO 07003KT 10SM CLR 13/10 A3019 RMK AO2 SLP219 T01330100 $
KMCB 180553Z AUTO 00000KT 10SM CLR 14/11 A3019 RMK AO2 SLP219 T01390106 10200 20139 402500100 58005 $
KMCB 180453Z AUTO 00000KT 10SM CLR 15/11 A3020 RMK AO2 SLP223 T01500111 $
KMCB 180353Z AUTO 05003KT 10SM CLR 16/12 A3020 RMK AO2 SLP224 T01610117 $
KMCB 180253Z AUTO 05003KT 10SM CLR 17/12 A3020 RMK AO2 SLP224 T01670117 51017 $
KMCB 180153Z AUTO 00000KT 10SM CLR 18/12 A3019 RMK AO2 SLP222 T01780122
KMCB 180053Z AUTO 02003KT 10SM CLR 19/12 A3017 RMK AO2 SLP212 T01890117